Report METAR

 

Warning: fopen(./cache/metarcache-KSJC.txt): failed to open stream: No such file or directory in /web/htdocs/www.oristanometeo.com/home/get-metar-conditions-inc.php on line 195 Warning: fopen(./cache/metarcache-KNUQ.txt): failed to open stream: No such file or directory in /web/htdocs/www.oristanometeo.com/home/get-metar-conditions-inc.php on line 195 Warning: fopen(./cache/metarcache-KPAO.txt): failed to open stream: No such file or directory in /web/htdocs/www.oristanometeo.com/home/get-metar-conditions-inc.php on line 195 Warning: fopen(./cache/metarcache-KRHV.txt): failed to open stream: No such file or directory in /web/htdocs/www.oristanometeo.com/home/get-metar-conditions-inc.php on line 195 Warning: fopen(./cache/metarcache-KOAK.txt): failed to open stream: No such file or directory in /web/htdocs/www.oristanometeo.com/home/get-metar-conditions-inc.php on line 195 Warning: fopen(./cache/metarcache-KSQL.txt): failed to open stream: No such file or directory in /web/htdocs/www.oristanometeo.com/home/get-metar-conditions-inc.php on line 195 Warning: fopen(./cache/metarcache-KSFO.txt): failed to open stream: No such file or directory in /web/htdocs/www.oristanometeo.com/home/get-metar-conditions-inc.php on line 195 Warning: fopen(./cache/metarcache-KE16.txt): failed to open stream: No such file or directory in /web/htdocs/www.oristanometeo.com/home/get-metar-conditions-inc.php on line 195 Warning: fopen(./cache/metarcache-KWVI.txt): failed to open stream: No such file or directory in /web/htdocs/www.oristanometeo.com/home/get-metar-conditions-inc.php on line 195 Warning: fopen(./cache/metarcache-KHAF.txt): failed to open stream: No such file or directory in /web/htdocs/www.oristanometeo.com/home/get-metar-conditions-inc.php on line 195 Warning: fopen(./cache/metarcache-KHWD.txt): failed to open stream: No such file or directory in /web/htdocs/www.oristanometeo.com/home/get-metar-conditions-inc.php on line 195 Warning: fopen(./cache/metarcache-KLVK.txt): failed to open stream: No such file or directory in /web/htdocs/www.oristanometeo.com/home/get-metar-conditions-inc.php on line 195
KSJC - San Jose, California, USA
Distance from station: NE 14km
Dati ricevuti: 04/03/2021 14:53
Sereno
Sereno
 Vento da SSE
Vento: SSE 13 km/h
Temperatura: 7°C
Temperatura Vento: 5°C
P.to Rugiada: 3°C
Umidità: 76%
Barometro: 1022.4 hPa
Nuvole: Sereno
Visibility: 16 km
2021/03/04 13:53 KSJC 041353Z 15007KT 10SM CLR 07/03 A3019 RMK AO2 SLP223 T00670033
KNUQ - Moffett Nas/Mtn, California, USA
Distance from station: N 14km
Dati ricevuti: 04/03/2021 15:30
Sereno
Sereno
 Vento da calmo
Vento: Calma
Temperatura: 6°C
P.to Rugiada: 3°C
Umidità: 81%
Barometro: 1022.7 hPa
Nuvole: Sereno
Visibility: 16 km
2021/03/04 14:30 KNUQ 041430Z AUTO 00000KT 10SM CLR 06/03 A3020 RMK AO2
KPAO - Palo Alto, California, USA
Distance from station: NNO 23km
Dati ricevuti: 04/03/2021 15:47
Sereno
Sereno
 Vento da calmo
Vento: Calma
Temperatura: 3°C
P.to Rugiada: 2°C
Umidità: 93%
Barometro: 1023 hPa
Nuvole: Sereno
Visibility: 16 km
2021/03/04 14:47 KPAO 041447Z 00000KT 10SM SKC 03/02 A3021
 
KRHV - San Jose/Reid, California, USA
Distance from station: ENE 19km
Dati ricevuti: 04/03/2021 15:50
Sereno
Sereno
 Vento da calmo
Vento: Calma
Temperatura: 4°C
P.to Rugiada: 2°C
Umidità: 87%
Barometro: 1023 hPa
Nuvole: Sereno
Visibility: 16 km
2021/03/04 14:50 KRHV 041450Z 00000KT 10SM SKC 04/02 A3021
KOAK - Oakland, California, USA
Distance from station: NNO 50km
Dati ricevuti: 04/03/2021 15:53
Few Clouds
Few Clouds
 Vento da calmo
Vento: Calma
Temperatura: 8°C
P.to Rugiada: 4°C
Umidità: 76%
Barometro: 1023.4 hPa
Nuvole: Few Clouds
Visibility: 16 km
Cloud details: Few Clouds 610 m
Few Clouds 7620 m
2021/03/04 14:53 KOAK 041453Z 00000KT 10SM FEW020 FEW250 08/04 A3022 RMK AO2 SLP231 T00780039 53019
KSQL - San Carlos Airpo, California, USA
Distance from station: NO 34km
Dati ricevuti: 04/03/2021 15:48
Few Clouds
Few Clouds
 Vento da calmo
Vento: Calma
Temperatura: 5°C
P.to Rugiada: 4°C
Umidità: 93%
Barometro: 1023.4 hPa
Nuvole: Few Clouds
Visibility: 16 km
Cloud details: Few Clouds 610 m
2021/03/04 14:48 KSQL 041448Z 00000KT 10SM FEW020 05/04 A3022
 
KSFO - San Francisco, California, USA
Distance from station: NO 49km
Dati ricevuti: 04/03/2021 14:56
Few Clouds
Few Clouds
 Vento da S
Vento: S 11 km/h
Temperatura: 9°C
Temperatura Vento: 7°C
P.to Rugiada: 5°C
Umidità: 76%
Barometro: 1022 hPa
Nuvole: Few Clouds
Visibility: 16 km
Cloud details: Few Clouds 6096 m
2021/03/04 13:56 KSFO 041356Z 18006KT 10SM FEW200 09/05 A3018 RMK AO2 SLP221 T00890050
KE16 - San Martin, California, USA
Distance from station: ESE 43km
Dati ricevuti: 04/03/2021 15:35
Few Clouds
Few Clouds
 Vento da E
Vento: E 6 km/h
Temperatura: 3°C
P.to Rugiada: 3°C
Umidità: 100%
Barometro: 1023.7 hPa
Nuvole: Few Clouds
Visibility: 16 km
Cloud details: Few Clouds 579 m
2021/03/04 14:35 KE16 041435Z AUTO 09003KT 10SM FEW019 03/03 A3023 RMK AO2 PWINO PNO
KWVI - Watsonville, California, USA
Distance from station: SSE 44km
Dati ricevuti: 04/03/2021 15:53
Sereno
Sereno
 Vento da NNO
Vento: NNO 6 km/h
Temperatura: 4°C
P.to Rugiada: 3°C
Umidità: 93%
Barometro: 1023.7 hPa
Nuvole: Sereno
Visibility: 16 km
2021/03/04 14:53 KWVI 041453Z AUTO 34003KT 10SM CLR 04/03 A3023 RMK AO2 SLP236 T00440033 510
 
KHAF - Half Moon Bay, California, USA
Distance from station: ONO 50km
Dati ricevuti: 04/03/2021 15:35
Coperto
Coperto
 Vento da SE
Vento: SE 11 km/h
Temperatura: 9°C
Temperatura Vento: 7°C
P.to Rugiada: 5°C
Umidità: 76%
Barometro: 1023 hPa
Nuvole: Coperto
Visibility: 11 km
Cloud details: Coperto 671 m
2021/03/04 14:35 KHAF 041435Z AUTO 14006KT 7SM OVC022 09/05 A3021 RMK AO2
KHWD - Hayward, California, USA
Distance from station: N 44km
Dati ricevuti: 04/03/2021 14:54
Sereno
Sereno
 Vento da NE
Vento: NE 9 km/h
Temperatura: 6°C
Temperatura Vento: 4°C
P.to Rugiada: 3°C
Umidità: 81%
Barometro: 1022 hPa
Nuvole: Sereno
Visibility: 16 km
2021/03/04 13:54 KHWD 041354Z 04005KT 10SM CLR 06/03 A3018 RMK AO2 SLP230 T00610033
KLVK - Livermore, California, USA
Distance from station: NNE 51km
Dati ricevuti: 04/03/2021 15:53
Sereno
Sereno
 Vento da calmo
Vento: Calma
Temperatura: 3°C
P.to Rugiada: 1°C
Umidità: 87%
Barometro: 1023 hPa
Nuvole: Sereno
Visibility: 13 km
2021/03/04 14:53 KLVK 041453Z AUTO 00000KT 8SM CLR 03/01 A3021 RMK AO2 SLP229 T00280011 53023